Time;durP1;ratioP1;P1;durP2;ratioP2;P2;SDS_P1;SDS_P2;PMS_P1;PMS_P2;Temp;Humidity;BMP_temperature;BMP_pressure;BME280_temperature;BME280_humidity;BME280_pressure;Samples;Min_cycle;Max_cycle;Signal;HPM_P1;HPM_P2
2022/05/20 00:02:26;;;;;;;2.73;1.50;;;;;;;;;;5051600;28;20206;-76
2022/05/20 00:04:53;;;;;;;1.70;1.60;;;;;;;;;;5051522;28;20212;-76
2022/05/20 00:07:21;;;;;;;2.00;1.90;;;;;;;;;;5051115;28;20258;-76
2022/05/20 00:09:48;;;;;;;2.03;1.80;;;;;;;;;;5051831;28;20622;-77
2022/05/20 00:12:15;;;;;;;1.70;1.60;;;;;;;;;;5051480;28;20694;-78
2022/05/20 00:14:42;;;;;;;2.20;1.67;;;;;;;;;;5051518;28;20208;-76
2022/05/20 00:17:11;;;;;;;3.33;1.77;;;;;;;;;;5051358;28;20274;-77
2022/05/20 00:19:38;;;;;;;1.90;1.70;;;;;;;;;;5051252;28;20201;-77
2022/05/20 00:22:06;;;;;;;7.23;1.80;;;;;;;;;;5051074;28;20224;-77
2022/05/20 00:25:45;;;;;;;1.80;1.70;;;;;;;;;;5051639;28;20201;-77
2022/05/20 00:27:20;;;;;;;2.10;1.90;;;;;;;;;;5050729;27;20221;-77
2022/05/20 00:29:47;;;;;;;3.00;1.97;;;;;;;;;;5051447;28;20217;-77
2022/05/20 00:32:16;;;;;;;2.67;2.13;;;;;;;;;;5051110;28;20195;-76
2022/05/20 00:34:43;;;;;;;2.30;2.10;;;;;;;;;;5051016;28;20198;-77
2022/05/20 00:37:11;;;;;;;2.97;1.80;;;;;;;;;;5051144;28;20202;-77
2022/05/20 00:39:38;;;;;;;2.10;1.90;;;;;;;;;;5050761;28;20206;-77
2022/05/20 00:42:13;;;;;;;2.10;1.90;;;;;;;;;;5050895;28;20748;-76
2022/05/20 00:44:40;;;;;;;2.73;2.53;;;;;;;;;;5051031;28;20634;-76
2022/05/20 00:47:08;;;;;;;2.00;1.80;;;;;;;;;;5050655;28;20202;-76
2022/05/20 00:49:37;;;;;;;2.07;1.97;;;;;;;;;;5050557;28;20202;-76
2022/05/20 00:52:05;;;;;;;3.47;1.87;;;;;;;;;;5050669;28;20202;-76
2022/05/20 00:54:37;;;;;;;5.30;2.00;;;;;;;;;;5050843;28;20203;-76
2022/05/20 00:57:06;;;;;;;1.97;1.87;;;;;;;;;;5050681;28;20209;-76
2022/05/20 00:59:37;;;;;;;2.97;2.00;;;;;;;;;;5050660;28;20194;-76
2022/05/20 01:02:10;;;;;;;3.87;2.10;;;;;;;;;;5049841;28;20237;-76
2022/05/20 01:04:40;;;;;;;3.17;2.20;;;;;;;;;;5050619;28;20194;-76
2022/05/20 01:07:08;;;;;;;2.20;2.03;;;;;;;;;;5050220;28;20390;-76
2022/05/20 01:09:37;;;;;;;4.07;2.47;;;;;;;;;;5050625;28;20293;-77
2022/05/20 01:12:05;;;;;;;3.13;2.17;;;;;;;;;;5050582;28;20194;-77
2022/05/20 01:14:33;;;;;;;2.73;2.33;;;;;;;;;;5050623;28;20194;-76
2022/05/20 01:17:00;;;;;;;2.77;2.50;;;;;;;;;;5050111;28;20198;-76
2022/05/20 01:19:35;;;;;;;2.27;1.80;;;;;;;;;;5050644;28;20212;-77
2022/05/20 01:22:05;;;;;;;3.50;1.93;;;;;;;;;;5050151;28;20282;-77
2022/05/20 01:24:34;;;;;;;2.67;2.27;;;;;;;;;;5050324;28;20186;-77
2022/05/20 01:27:02;;;;;;;1.90;1.80;;;;;;;;;;5050164;28;20198;-77
2022/05/20 01:29:29;;;;;;;3.97;2.00;;;;;;;;;;5050713;28;20349;-77
2022/05/20 01:31:56;;;;;;;2.33;2.13;;;;;;;;;;5049954;28;20194;-76
2022/05/20 01:34:23;;;;;;;1.93;1.80;;;;;;;;;;5050059;28;20198;-76
2022/05/20 01:36:51;;;;;;;2.20;2.00;;;;;;;;;;5049712;28;20200;-76
2022/05/20 01:39:18;;;;;;;2.20;1.93;;;;;;;;;;5050032;28;20208;-76
2022/05/20 01:41:50;;;;;;;2.10;2.00;;;;;;;;;;5049753;28;20229;-76
2022/05/20 01:44:21;;;;;;;1.90;1.80;;;;;;;;;;5050055;28;20179;-76
2022/05/20 01:46:53;;;;;;;1.93;1.83;;;;;;;;;;5049953;28;20193;-76
2022/05/20 01:49:33;;;;;;;1.80;1.70;;;;;;;;;;5049879;28;20182;-76
2022/05/20 01:52:12;;;;;;;1.60;1.50;;;;;;;;;;5049708;28;20238;-76
2022/05/20 01:54:45;;;;;;;2.53;1.90;;;;;;;;;;5049818;28;20182;-76
2022/05/20 01:57:20;;;;;;;2.70;1.60;;;;;;;;;;5049283;28;20189;-76
2022/05/20 01:59:51;;;;;;;1.97;1.80;;;;;;;;;;5049798;28;20193;-76
2022/05/20 02:02:25;;;;;;;1.97;1.87;;;;;;;;;;5049612;28;20214;-76
2022/05/20 02:04:55;;;;;;;2.10;2.00;;;;;;;;;;5049589;28;20569;-77
2022/05/20 02:07:27;;;;;;;2.37;2.17;;;;;;;;;;5049287;28;20182;-77
2022/05/20 02:09:58;;;;;;;1.90;1.80;;;;;;;;;;5049612;28;20668;-76
2022/05/20 02:12:31;;;;;;;1.90;1.80;;;;;;;;;;5048394;28;20189;-76
2022/05/20 02:15:03;;;;;;;2.00;1.90;;;;;;;;;;5049887;28;20213;-76
2022/05/20 02:17:35;;;;;;;4.03;2.33;;;;;;;;;;5049163;28;20190;-76
2022/05/20 02:20:08;;;;;;;2.47;2.00;;;;;;;;;;5049447;28;20239;-76
2022/05/20 02:22:40;;;;;;;1.90;1.80;;;;;;;;;;5049188;28;20612;-76
2022/05/20 02:25:10;;;;;;;2.10;1.80;;;;;;;;;;5049211;28;20654;-76
2022/05/20 02:27:42;;;;;;;1.80;1.70;;;;;;;;;;5049519;28;20186;-76
2022/05/20 02:30:11;;;;;;;2.37;1.90;;;;;;;;;;5049369;28;20182;-76
2022/05/20 02:32:43;;;;;;;2.03;1.67;;;;;;;;;;5049189;28;20194;-77
2022/05/20 02:35:10;;;;;;;2.07;1.90;;;;;;;;;;5049167;28;20189;-76
2022/05/20 02:37:38;;;;;;;2.07;1.53;;;;;;;;;;5049110;28;20237;-76
2022/05/20 02:40:08;;;;;;;1.80;1.70;;;;;;;;;;5049211;28;20202;-76
2022/05/20 02:42:36;;;;;;;3.73;3.07;;;;;;;;;;5048952;28;20277;-76
2022/05/20 02:45:06;;;;;;;1.50;1.40;;;;;;;;;;5049011;28;20204;-76
2022/05/20 02:47:34;;;;;;;1.80;1.70;;;;;;;;;;5048992;28;20193;-77
2022/05/20 02:50:03;;;;;;;2.13;1.60;;;;;;;;;;5049097;28;20201;-76
2022/05/20 02:52:30;;;;;;;3.13;1.60;;;;;;;;;;5049052;28;20576;-76
2022/05/20 02:54:58;;;;;;;3.17;1.47;;;;;;;;;;5048847;28;20205;-76
2022/05/20 02:57:25;;;;;;;2.30;2.10;;;;;;;;;;5048972;28;20277;-76
2022/05/20 03:05:22;;;;;;;2.97;2.30;;;;;;;;;;5030855;28;20189;-76
2022/05/20 03:07:50;;;;;;;2.97;1.80;;;;;;;;;;5048580;28;20202;-76
2022/05/20 03:10:17;;;;;;;4.70;1.87;;;;;;;;;;5048878;28;20202;-76
2022/05/20 03:12:44;;;;;;;2.27;2.17;;;;;;;;;;5048801;28;20190;-76
2022/05/20 03:15:14;;;;;;;1.93;1.83;;;;;;;;;;5048732;28;20194;-76
2022/05/20 03:17:43;;;;;;;1.97;1.83;;;;;;;;;;5048549;28;20268;-76
2022/05/20 03:20:12;;;;;;;2.87;2.27;;;;;;;;;;5048595;28;20573;-76
2022/05/20 03:22:39;;;;;;;2.23;2.00;;;;;;;;;;5048358;28;20226;-76
2022/05/20 03:25:07;;;;;;;2.40;2.20;;;;;;;;;;5051377;28;20204;-76
2022/05/20 03:27:34;;;;;;;2.33;2.13;;;;;;;;;;5051964;28;20202;-76
2022/05/20 03:30:01;;;;;;;1.90;1.80;;;;;;;;;;5052391;28;20202;-76
2022/05/20 03:32:28;;;;;;;1.83;1.73;;;;;;;;;;5051853;28;20670;-76
2022/05/20 03:34:58;;;;;;;1.80;1.70;;;;;;;;;;5052311;28;20220;-76
2022/05/20 03:37:25;;;;;;;2.10;1.77;;;;;;;;;;5034946;28;20667;-76
2022/05/20 03:39:53;;;;;;;2.33;1.97;;;;;;;;;;5032337;28;20235;-76
2022/05/20 03:42:20;;;;;;;2.77;1.90;;;;;;;;;;5031679;28;20223;-76
2022/05/20 03:44:47;;;;;;;2.70;2.10;;;;;;;;;;5032074;28;20259;-76
2022/05/20 03:47:14;;;;;;;2.07;1.80;;;;;;;;;;5037008;28;20216;-75
2022/05/20 03:49:42;;;;;;;2.13;1.90;;;;;;;;;;5048819;28;20200;-76
2022/05/20 03:52:11;;;;;;;3.80;1.90;;;;;;;;;;5051371;28;20205;-76
2022/05/20 03:54:39;;;;;;;2.10;1.87;;;;;;;;;;5051209;28;20224;-76
2022/05/20 03:57:07;;;;;;;4.17;1.90;;;;;;;;;;5051347;28;20208;-76
2022/05/20 03:59:36;;;;;;;4.80;2.20;;;;;;;;;;5052053;28;20198;-76
2022/05/20 04:02:05;;;;;;;2.33;2.13;;;;;;;;;;5051125;28;20225;-76
2022/05/20 04:04:36;;;;;;;2.27;1.90;;;;;;;;;;5051398;28;20198;-76
2022/05/20 04:07:05;;;;;;;1.90;1.70;;;;;;;;;;5051838;28;20236;-76
2022/05/20 04:09:34;;;;;;;3.73;2.30;;;;;;;;;;5051432;28;20692;-76
2022/05/20 04:12:03;;;;;;;3.53;2.40;;;;;;;;;;5051352;28;20198;-76
2022/05/20 04:14:31;;;;;;;2.10;1.90;;;;;;;;;;5047832;28;20198;-76
2022/05/20 04:16:58;;;;;;;1.80;1.70;;;;;;;;;;5031584;28;20309;-77
2022/05/20 04:19:26;;;;;;;1.90;1.80;;;;;;;;;;5031424;28;20203;-77
2022/05/20 04:21:56;;;;;;;4.67;2.70;;;;;;;;;;5039498;28;20288;-77
2022/05/20 04:24:23;;;;;;;3.77;2.47;;;;;;;;;;5051292;28;20671;-77
2022/05/20 04:26:52;;;;;;;7.90;2.80;;;;;;;;;;5051013;28;20202;-76
2022/05/20 04:29:20;;;;;;;3.47;2.67;;;;;;;;;;5045847;28;20206;-77
2022/05/20 04:31:49;;;;;;;3.43;2.30;;;;;;;;;;5030972;28;20361;-76
2022/05/20 04:34:17;;;;;;;2.60;2.37;;;;;;;;;;5031159;28;20194;-76
2022/05/20 04:36:44;;;;;;;3.13;2.23;;;;;;;;;;5030429;28;20662;-77
2022/05/20 04:39:12;;;;;;;1.80;1.50;;;;;;;;;;5031053;28;20199;-77
2022/05/20 04:47:14;;;;;;;1.60;1.50;;;;;;;;;;5030272;28;20182;-77
2022/05/20 04:49:42;;;;;;;2.17;1.47;;;;;;;;;;5031071;28;20230;-77
2022/05/20 04:52:10;;;;;;;2.53;1.63;;;;;;;;;;5030624;28;20753;-77
2022/05/20 04:54:52;;;;;;;1.73;1.53;;;;;;;;;;5031199;28;20290;-77
2022/05/20 04:57:23;;;;;;;1.50;1.40;;;;;;;;;;5030767;28;20183;-77
2022/05/20 04:59:52;;;;;;;2.30;1.80;;;;;;;;;;5030670;28;20190;-77
2022/05/20 05:02:20;;;;;;;2.47;1.43;;;;;;;;;;4991570;28;20192;-76
2022/05/20 05:04:48;;;;;;;3.57;1.37;;;;;;;;;;4991531;28;20207;-77
2022/05/20 05:07:15;;;;;;;2.27;2.10;;;;;;;;;;4991571;28;20200;-77
2022/05/20 05:09:43;;;;;;;1.50;1.40;;;;;;;;;;4991213;28;20703;-77
2022/05/20 05:12:12;;;;;;;1.57;1.47;;;;;;;;;;4991594;28;20200;-77
2022/05/20 05:14:41;;;;;;;2.33;1.70;;;;;;;;;;4991369;28;20207;-77
2022/05/20 05:17:10;;;;;;;3.87;2.10;;;;;;;;;;4991268;28;20200;-76
2022/05/20 05:19:38;;;;;;;2.60;1.53;;;;;;;;;;4991891;28;20285;-77
2022/05/20 05:22:07;;;;;;;1.70;1.60;;;;;;;;;;4991250;28;20204;-77
2022/05/20 05:24:35;;;;;;;3.80;1.83;;;;;;;;;;4991475;28;20790;-77
2022/05/20 05:27:02;;;;;;;2.10;1.90;;;;;;;;;;4990790;28;20703;-78
2022/05/20 05:29:29;;;;;;;1.87;1.50;;;;;;;;;;4991139;28;20672;-78
2022/05/20 05:31:57;;;;;;;4.97;2.03;;;;;;;;;;4991231;28;20204;-77
2022/05/20 05:34:26;;;;;;;1.53;1.43;;;;;;;;;;4991326;28;20256;-78
2022/05/20 05:36:53;;;;;;;1.73;1.47;;;;;;;;;;4990937;28;20251;-77
2022/05/20 05:39:21;;;;;;;5.93;1.80;;;;;;;;;;4991283;28;20207;-78
2022/05/20 05:41:48;;;;;;;1.57;1.47;;;;;;;;;;4990895;28;20204;-77
2022/05/20 05:44:16;;;;;;;1.50;1.40;;;;;;;;;;4990892;28;20237;-77
2022/05/20 05:46:43;;;;;;;6.03;2.10;;;;;;;;;;4990861;28;20257;-78
2022/05/20 05:49:10;;;;;;;3.00;1.90;;;;;;;;;;4990608;28;20210;-78
2022/05/20 05:51:39;;;;;;;1.70;1.50;;;;;;;;;;4990632;28;20200;-78
2022/05/20 05:54:06;;;;;;;1.50;1.40;;;;;;;;;;4990824;28;20207;-78
2022/05/20 05:56:33;;;;;;;1.50;1.40;;;;;;;;;;4990874;28;20204;-78
2022/05/20 05:59:01;;;;;;;2.93;1.33;;;;;;;;;;4991000;28;20223;-78
2022/05/20 06:01:28;;;;;;;2.47;1.40;;;;;;;;;;5015867;28;20694;-78
2022/05/20 06:03:56;;;;;;;1.60;1.50;;;;;;;;;;5030100;28;20310;-78
2022/05/20 06:06:23;;;;;;;1.33;1.23;;;;;;;;;;5029720;28;20195;-78
2022/05/20 06:08:51;;;;;;;1.40;1.30;;;;;;;;;;5029564;28;20688;-78
2022/05/20 06:11:19;;;;;;;1.40;1.30;;;;;;;;;;5029627;28;20294;-78
2022/05/20 06:13:46;;;;;;;5.27;2.90;;;;;;;;;;5029730;28;20206;-78
2022/05/20 06:16:19;;;;;;;2.17;1.40;;;;;;;;;;5029935;28;20194;-78
2022/05/20 06:18:46;;;;;;;2.00;1.40;;;;;;;;;;5030010;28;20190;-78
2022/05/20 06:21:13;;;;;;;3.30;1.47;;;;;;;;;;5029178;28;20230;-78
2022/05/20 06:23:41;;;;;;;2.47;1.60;;;;;;;;;;5029477;28;20229;-78
2022/05/20 06:26:09;;;;;;;2.27;1.80;;;;;;;;;;5029367;28;20586;-77
2022/05/20 06:28:36;;;;;;;1.87;1.50;;;;;;;;;;5029781;28;20200;-78
2022/05/20 06:31:04;;;;;;;1.40;1.30;;;;;;;;;;5029065;28;20201;-78
2022/05/20 06:33:31;;;;;;;4.90;1.67;;;;;;;;;;5029535;28;20197;-78
2022/05/20 06:41:28;;;;;;;2.23;1.50;;;;;;;;;;5029059;28;20668;-78
2022/05/20 06:43:57;;;;;;;1.87;1.77;;;;;;;;;;5029537;28;20262;-78
2022/05/20 06:46:24;;;;;;;4.50;1.83;;;;;;;;;;5029040;28;20202;-78
2022/05/20 06:48:53;;;;;;;1.40;1.30;;;;;;;;;;5029201;28;20233;-78
2022/05/20 06:51:23;;;;;;;1.47;1.37;;;;;;;;;;5028805;28;20202;-78
2022/05/20 06:53:52;;;;;;;1.73;1.57;;;;;;;;;;5029770;28;20218;-78
2022/05/20 06:56:20;;;;;;;1.87;1.13;;;;;;;;;;5028897;28;20209;-78
2022/05/20 06:58:49;;;;;;;2.37;1.73;;;;;;;;;;5028581;28;20203;-78
2022/05/20 07:01:16;;;;;;;2.97;1.70;;;;;;;;;;5028736;28;20241;-78
2022/05/20 07:03:44;;;;;;;3.83;1.40;;;;;;;;;;5028994;28;20313;-78
2022/05/20 07:06:12;;;;;;;1.57;1.40;;;;;;;;;;5028782;28;20198;-78
2022/05/20 07:08:39;;;;;;;1.40;1.30;;;;;;;;;;5029369;28;20663;-78
2022/05/20 07:11:07;;;;;;;2.80;1.33;;;;;;;;;;5028617;28;20191;-78
2022/05/20 07:13:35;;;;;;;5.13;1.57;;;;;;;;;;5028950;28;20195;-78
2022/05/20 07:16:04;;;;;;;2.57;1.70;;;;;;;;;;5029005;28;20257;-78
2022/05/20 07:18:32;;;;;;;2.43;1.80;;;;;;;;;;5028843;28;20210;-78
2022/05/20 07:20:59;;;;;;;1.40;1.30;;;;;;;;;;5028408;28;20667;-78
2022/05/20 07:23:28;;;;;;;1.40;1.30;;;;;;;;;;5029176;28;20226;-78
2022/05/20 07:25:55;;;;;;;2.77;1.47;;;;;;;;;;5028595;28;20203;-78
2022/05/20 07:28:23;;;;;;;1.67;1.57;;;;;;;;;;5028808;28;20206;-78
2022/05/20 07:30:50;;;;;;;1.23;1.10;;;;;;;;;;5028543;28;20198;-79
2022/05/20 07:33:18;;;;;;;1.83;1.27;;;;;;;;;;5028800;28;20301;-78
2022/05/20 07:35:46;;;;;;;1.30;1.20;;;;;;;;;;5028382;28;20199;-78
2022/05/20 07:38:13;;;;;;;1.60;1.37;;;;;;;;;;5028757;28;20251;-79
2022/05/20 07:40:42;;;;;;;1.40;1.30;;;;;;;;;;5028376;28;20210;-78
2022/05/20 07:43:10;;;;;;;2.10;1.40;;;;;;;;;;5028611;28;20210;-79
2022/05/20 07:45:37;;;;;;;1.60;1.40;;;;;;;;;;5028598;28;20283;-79
2022/05/20 07:48:05;;;;;;;4.10;1.63;;;;;;;;;;5028579;28;20241;-78
2022/05/20 07:50:40;;;;;;;1.87;1.33;;;;;;;;;;5028266;28;20201;-78
2022/05/20 07:53:23;;;;;;;1.97;1.73;;;;;;;;;;5028253;28;20190;-78
2022/05/20 07:55:52;;;;;;;1.40;1.30;;;;;;;;;;5028321;28;20260;-78
2022/05/20 07:58:25;;;;;;;1.40;1.30;;;;;;;;;;5028494;28;20202;-78
2022/05/20 08:00:52;;;;;;;2.43;1.30;;;;;;;;;;5028042;28;20230;-79
2022/05/20 08:04:52;;;;;;;1.80;1.57;;;;;;;;;;5027935;28;20213;-78
2022/05/20 08:06:08;;;;;;;3.90;1.30;;;;;;;;;;5028131;28;20187;-78
2022/05/20 08:08:35;;;;;;;1.53;1.30;;;;;;;;;;5028260;28;20289;-78
2022/05/20 08:11:02;;;;;;;4.73;1.27;;;;;;;;;;5028867;28;20198;-78
2022/05/20 08:13:29;;;;;;;1.90;1.27;;;;;;;;;;5031616;28;20205;-79
2022/05/20 08:15:56;;;;;;;2.40;1.60;;;;;;;;;;5031383;28;20683;-78
2022/05/20 08:18:24;;;;;;;2.83;1.80;;;;;;;;;;5031865;28;20584;-79
2022/05/20 08:20:52;;;;;;;3.63;1.50;;;;;;;;;;5031523;28;20228;-79
2022/05/20 08:23:21;;;;;;;2.27;1.57;;;;;;;;;;5031347;28;20199;-79
2022/05/20 08:25:48;;;;;;;1.73;1.63;;;;;;;;;;5031473;28;20313;-79
2022/05/20 08:28:15;;;;;;;3.87;1.53;;;;;;;;;;5031402;28;20209;-78
2022/05/20 08:30:42;;;;;;;1.40;1.30;;;;;;;;;;5031124;28;20202;-79
2022/05/20 08:33:09;;;;;;;1.40;1.30;;;;;;;;;;5031288;28;20214;-79
2022/05/20 08:35:37;;;;;;;3.60;1.50;;;;;;;;;;5031277;28;20195;-78
2022/05/20 08:38:05;;;;;;;2.20;1.93;;;;;;;;;;5031524;28;20762;-79
2022/05/20 08:40:38;;;;;;;1.50;1.40;;;;;;;;;;5031162;28;20663;-79
2022/05/20 08:43:06;;;;;;;1.87;1.47;;;;;;;;;;5031108;28;20194;-78
2022/05/20 08:45:34;;;;;;;2.60;1.90;;;;;;;;;;5030964;28;20234;-79
2022/05/20 08:48:04;;;;;;;2.00;1.30;;;;;;;;;;5031768;28;20548;-78
2022/05/20 08:50:35;;;;;;;4.57;1.57;;;;;;;;;;5030753;28;20213;-79
2022/05/20 08:53:03;;;;;;;3.80;1.70;;;;;;;;;;5031477;28;20215;-79
2022/05/20 08:55:30;;;;;;;1.37;1.10;;;;;;;;;;5031309;28;20212;-79
2022/05/20 08:58:01;;;;;;;2.60;1.40;;;;;;;;;;5031233;28;20215;-79
2022/05/20 09:00:29;;;;;;;2.53;1.73;;;;;;;;;;5030614;28;20275;-79
2022/05/20 09:02:57;;;;;;;1.60;1.50;;;;;;;;;;5031211;28;20570;-78
2022/05/20 09:05:26;;;;;;;4.10;1.73;;;;;;;;;;5031157;28;20601;-78
2022/05/20 09:07:59;;;;;;;2.47;1.40;;;;;;;;;;5030796;28;20191;-78
2022/05/20 09:10:32;;;;;;;1.40;1.30;;;;;;;;;;5031014;28;20209;-79
2022/05/20 09:13:15;;;;;;;1.40;1.30;;;;;;;;;;5030862;28;20263;-79
2022/05/20 09:15:44;;;;;;;3.33;1.60;;;;;;;;;;5030828;28;20749;-78
2022/05/20 09:18:18;;;;;;;1.70;1.60;;;;;;;;;;5030452;28;20260;-79
2022/05/20 09:20:48;;;;;;;1.87;1.53;;;;;;;;;;5030903;28;20563;-78
2022/05/20 09:23:20;;;;;;;1.67;1.57;;;;;;;;;;5030397;28;20202;-78
2022/05/20 09:26:00;;;;;;;2.47;1.40;;;;;;;;;;5030703;28;20215;-78
2022/05/20 09:28:36;;;;;;;1.60;1.50;;;;;;;;;;5030666;28;20194;-79
2022/05/20 09:31:16;;;;;;;1.50;1.40;;;;;;;;;;5030522;28;20214;-78
2022/05/20 09:33:51;;;;;;;1.83;1.60;;;;;;;;;;5030504;28;20195;-78
2022/05/20 09:36:34;;;;;;;2.47;1.50;;;;;;;;;;5029929;28;20184;-78
2022/05/20 09:39:10;;;;;;;2.10;1.73;;;;;;;;;;5030344;28;20243;-78
2022/05/20 09:41:46;;;;;;;2.50;1.10;;;;;;;;;;5030440;28;20191;-78
2022/05/20 09:44:15;;;;;;;3.57;1.47;;;;;;;;;;5030228;28;20217;-78
2022/05/20 09:46:51;;;;;;;1.87;1.53;;;;;;;;;;5029719;28;20579;-79
2022/05/20 09:49:24;;;;;;;3.30;1.80;;;;;;;;;;5030475;28;20242;-79
2022/05/20 09:51:55;;;;;;;5.53;1.80;;;;;;;;;;5029984;28;20720;-79
2022/05/20 09:54:26;;;;;;;4.63;2.20;;;;;;;;;;5030044;28;20187;-78
2022/05/20 09:57:07;;;;;;;1.73;1.57;;;;;;;;;;5029762;28;20183;-78
2022/05/20 09:59:49;;;;;;;2.57;1.40;;;;;;;;;;5029970;28;20190;-78
2022/05/20 10:02:25;;;;;;;1.73;1.63;;;;;;;;;;5029732;28;20722;-79
2022/05/20 10:04:58;;;;;;;2.60;1.50;;;;;;;;;;5030104;28;20250;-78
2022/05/20 10:07:34;;;;;;;4.10;1.97;;;;;;;;;;5029444;28;20277;-78
2022/05/20 10:10:07;;;;;;;1.63;1.37;;;;;;;;;;5030109;28;20187;-78
2022/05/20 10:12:38;;;;;;;1.40;1.30;;;;;;;;;;5029647;28;20240;-79
2022/05/20 10:15:14;;;;;;;1.30;1.20;;;;;;;;;;5029716;28;20197;-79
2022/05/20 10:17:48;;;;;;;2.87;1.57;;;;;;;;;;5029648;28;20195;-79
2022/05/20 10:20:20;;;;;;;1.10;1.10;;;;;;;;;;5029610;28;20197;-78
2022/05/20 10:22:56;;;;;;;2.43;1.47;;;;;;;;;;5029680;28;20216;-79
2022/05/20 10:25:29;;;;;;;4.73;1.80;;;;;;;;;;5029419;28;20214;-78
2022/05/20 10:28:02;;;;;;;1.10;1.10;;;;;;;;;;5029812;28;20190;-78
2022/05/20 10:33:25;;;;;;;1.67;1.50;;;;;;;;;;5028946;28;20186;-79
2022/05/20 10:36:08;;;;;;;2.43;1.40;;;;;;;;;;5029543;28;20182;-79
2022/05/20 10:38:54;;;;;;;3.77;1.40;;;;;;;;;;5029402;28;20183;-79
2022/05/20 10:41:30;;;;;;;1.90;1.50;;;;;;;;;;5029185;28;20187;-80
2022/05/20 10:49:55;;;;;;;6.53;2.13;;;;;;;;;;5029374;28;20304;-79
2022/05/20 10:52:44;;;;;;;2.23;1.50;;;;;;;;;;5028851;28;20191;-79
2022/05/20 10:55:20;;;;;;;1.20;1.10;;;;;;;;;;5028891;28;20718;-79
2022/05/20 10:58:26;;;;;;;2.07;1.60;;;;;;;;;;5029203;28;20243;-79
2022/05/20 11:00:55;;;;;;;2.43;1.60;;;;;;;;;;5028835;28;20238;-79
2022/05/20 11:03:52;;;;;;;1.63;1.50;;;;;;;;;;5028842;28;20242;-79
2022/05/20 11:06:36;;;;;;;2.57;1.43;;;;;;;;;;5028993;28;20209;-79
2022/05/20 11:09:06;;;;;;;4.87;1.53;;;;;;;;;;5029050;28;20183;-79
2022/05/20 11:11:57;;;;;;;4.47;1.73;;;;;;;;;;5028793;28;20236;-79
2022/05/20 11:14:49;;;;;;;2.90;1.70;;;;;;;;;;5024780;28;20198;-79
2022/05/20 11:17:57;;;;;;;1.10;1.10;;;;;;;;;;5028650;28;20202;-80
2022/05/20 11:20:38;;;;;;;6.50;2.20;;;;;;;;;;5004269;27;20195;-79
2022/05/20 11:23:29;;;;;;;1.50;1.40;;;;;;;;;;5028931;28;20183;-79
2022/05/20 11:26:30;;;;;;;1.57;1.17;;;;;;;;;;5019362;28;20218;-80
2022/05/20 11:29:10;;;;;;;1.90;1.27;;;;;;;;;;5029155;28;20194;-79
2022/05/20 11:31:48;;;;;;;3.93;1.30;;;;;;;;;;5028341;28;20187;-80
2022/05/20 11:34:35;;;;;;;2.67;1.20;;;;;;;;;;5028747;28;20278;-79
2022/05/20 11:37:16;;;;;;;2.97;1.30;;;;;;;;;;5028550;28;20705;-79
2022/05/20 11:40:08;;;;;;;1.80;1.70;;;;;;;;;;5028621;28;20230;-80
2022/05/20 11:42:46;;;;;;;4.87;2.40;;;;;;;;;;5028631;28;20571;-80
2022/05/20 11:45:19;;;;;;;2.93;1.87;;;;;;;;;;5029876;28;20225;-80
2022/05/20 11:48:20;;;;;;;2.07;1.30;;;;;;;;;;5032161;28;20253;-80
2022/05/20 11:51:20;;;;;;;1.40;1.30;;;;;;;;;;5031713;28;20191;-80
2022/05/20 11:53:54;;;;;;;1.37;1.27;;;;;;;;;;5017676;28;20216;-80
2022/05/20 11:56:28;;;;;;;1.57;1.47;;;;;;;;;;5031774;28;20552;-79
2022/05/20 11:59:00;;;;;;;1.73;1.50;;;;;;;;;;5031902;28;20281;-79
2022/05/20 12:01:29;;;;;;;1.20;1.20;;;;;;;;;;5031646;28;20239;-79
2022/05/20 12:04:09;;;;;;;1.23;1.13;;;;;;;;;;5031829;28;20602;-79
2022/05/20 12:06:42;;;;;;;1.97;1.40;;;;;;;;;;5031890;28;20211;-79
2022/05/20 12:09:31;;;;;;;2.13;1.70;;;;;;;;;;5032040;28;20286;-79
2022/05/20 12:12:12;;;;;;;1.13;1.13;;;;;;;;;;5031589;28;20240;-79
2022/05/20 12:15:01;;;;;;;4.07;1.37;;;;;;;;;;5031679;28;20187;-79
2022/05/20 12:17:33;;;;;;;1.67;1.57;;;;;;;;;;5031955;28;20214;-79
2022/05/20 12:25:50;;;;;;;1.33;1.23;;;;;;;;;;5031190;28;20223;-80
2022/05/20 12:28:31;;;;;;;3.73;1.67;;;;;;;;;;5031487;28;20195;-79
2022/05/20 12:31:07;;;;;;;2.33;1.50;;;;;;;;;;5031389;28;20194;-79
2022/05/20 12:33:51;;;;;;;2.03;1.33;;;;;;;;;;5031524;28;20191;-79
2022/05/20 12:36:21;;;;;;;1.80;1.10;;;;;;;;;;5030917;28;20190;-79
2022/05/20 12:38:49;;;;;;;1.23;1.13;;;;;;;;;;5031687;28;20290;-79
2022/05/20 12:41:33;;;;;;;3.10;1.20;;;;;;;;;;5031302;28;20206;-79
2022/05/20 12:44:25;;;;;;;1.37;1.27;;;;;;;;;;5031510;28;20193;-79
2022/05/20 12:47:18;;;;;;;1.70;1.40;;;;;;;;;;5030675;28;20214;-79
2022/05/20 12:50:00;;;;;;;4.90;1.60;;;;;;;;;;5012355;28;20279;-79
2022/05/20 12:52:30;;;;;;;1.87;1.13;;;;;;;;;;5030975;28;20197;-80
2022/05/20 12:55:00;;;;;;;5.00;1.83;;;;;;;;;;5031485;28;20195;-80
2022/05/20 12:57:30;;;;;;;1.33;1.23;;;;;;;;;;5029811;28;20199;-79
2022/05/20 13:00:00;;;;;;;1.47;1.37;;;;;;;;;;5031072;28;20187;-79
2022/05/20 13:02:33;;;;;;;1.37;1.20;;;;;;;;;;5030824;28;20274;-79
2022/05/20 13:05:04;;;;;;;2.93;1.23;;;;;;;;;;5030834;28;20191;-79
2022/05/20 13:07:33;;;;;;;1.97;1.50;;;;;;;;;;5030472;28;20233;-79
2022/05/20 13:10:01;;;;;;;1.83;1.40;;;;;;;;;;5031028;28;20195;-79
2022/05/20 13:12:29;;;;;;;2.23;1.80;;;;;;;;;;5030881;28;20199;-79
2022/05/20 13:15:00;;;;;;;1.30;1.20;;;;;;;;;;5030902;28;20201;-79
2022/05/20 13:17:27;;;;;;;3.07;1.47;;;;;;;;;;5030675;28;20186;-79
2022/05/20 13:19:57;;;;;;;2.33;1.40;;;;;;;;;;5030907;28;20201;-79
2022/05/20 13:22:26;;;;;;;3.77;1.13;;;;;;;;;;5030685;28;20205;-79
2022/05/20 13:24:56;;;;;;;2.73;1.50;;;;;;;;;;5030698;28;20199;-79
2022/05/20 13:27:24;;;;;;;2.23;0.90;;;;;;;;;;5030135;28;20198;-79
2022/05/20 13:29:53;;;;;;;3.27;1.20;;;;;;;;;;5030376;28;20199;-79
2022/05/20 13:32:29;;;;;;;1.50;1.20;;;;;;;;;;5030328;28;20198;-79
2022/05/20 13:34:57;;;;;;;1.50;1.40;;;;;;;;;;5030417;28;20190;-79
2022/05/20 13:37:29;;;;;;;1.93;1.20;;;;;;;;;;5030070;28;20202;-80
2022/05/20 13:40:06;;;;;;;1.50;1.40;;;;;;;;;;5030227;28;20187;-79
2022/05/20 13:42:34;;;;;;;1.67;1.27;;;;;;;;;;5030243;28;20195;-80
2022/05/20 13:45:09;;;;;;;1.83;1.00;;;;;;;;;;5030178;28;20203;-80
2022/05/20 13:50:22;;;;;;;1.50;1.23;;;;;;;;;;5030266;28;20178;-78
2022/05/20 13:52:49;;;;;;;2.17;1.17;;;;;;;;;;5030109;28;20198;-79
2022/05/20 13:55:17;;;;;;;1.83;1.40;;;;;;;;;;5030113;28;20264;-78
2022/05/20 13:57:47;;;;;;;2.47;1.70;;;;;;;;;;5029858;28;20197;-78
2022/05/20 14:00:29;;;;;;;3.40;1.43;;;;;;;;;;5032279;28;20243;-80
2022/05/20 14:03:03;;;;;;;1.77;1.47;;;;;;;;;;5030738;28;20182;-79
2022/05/20 14:05:33;;;;;;;2.70;1.70;;;;;;;;;;5030666;28;20242;-81
2022/05/20 14:08:03;;;;;;;1.70;1.60;;;;;;;;;;5030098;28;20626;-79
2022/05/20 14:10:35;;;;;;;1.30;1.20;;;;;;;;;;5029681;28;20293;-80
2022/05/20 14:13:04;;;;;;;1.30;1.20;;;;;;;;;;5031054;28;20623;-79
2022/05/20 14:15:42;;;;;;;3.23;1.30;;;;;;;;;;5030139;28;20199;-79
2022/05/20 14:18:23;;;;;;;2.97;1.52;;;;;;;;;;5030057;28;20187;-79
2022/05/20 14:20:55;;;;;;;3.17;1.37;;;;;;;;;;5030084;28;20722;-80
2022/05/20 14:23:23;;;;;;;1.17;1.07;;;;;;;;;;5030272;28;20685;-79
2022/05/20 14:25:56;;;;;;;1.27;1.17;;;;;;;;;;5029539;28;20231;-81
2022/05/20 14:28:36;;;;;;;2.10;1.33;;;;;;;;;;5029478;28;20203;-79
2022/05/20 14:31:05;;;;;;;2.27;1.50;;;;;;;;;;5029224;28;20191;-80
2022/05/20 14:33:36;;;;;;;2.53;1.53;;;;;;;;;;5029497;28;20740;-80
2022/05/20 14:36:09;;;;;;;1.10;1.10;;;;;;;;;;5029352;28;20183;-79
2022/05/20 14:38:40;;;;;;;1.77;1.50;;;;;;;;;;5029491;28;20217;-80
2022/05/20 14:41:07;;;;;;;4.87;1.60;;;;;;;;;;5029318;28;20269;-79
2022/05/20 14:43:37;;;;;;;2.93;1.63;;;;;;;;;;5029073;28;20195;-79
2022/05/20 14:46:07;;;;;;;1.93;1.47;;;;;;;;;;5029101;28;20227;-79
2022/05/20 14:48:39;;;;;;;1.10;1.10;;;;;;;;;;5029283;28;20277;-80
2022/05/20 14:51:07;;;;;;;2.47;1.30;;;;;;;;;;5029143;28;20226;-79
2022/05/20 14:53:40;;;;;;;2.00;1.47;;;;;;;;;;5029025;28;20205;-79
2022/05/20 14:56:07;;;;;;;1.40;1.27;;;;;;;;;;5028997;28;20639;-80
2022/05/20 14:58:35;;;;;;;2.90;1.60;;;;;;;;;;5030465;28;20290;-80
2022/05/20 15:01:05;;;;;;;1.67;1.30;;;;;;;;;;5028729;28;20231;-80
2022/05/20 15:03:35;;;;;;;2.03;1.80;;;;;;;;;;5028770;28;20790;-80
2022/05/20 15:06:02;;;;;;;6.70;1.70;;;;;;;;;;5046370;28;20222;-79
2022/05/20 15:08:33;;;;;;;2.10;1.73;;;;;;;;;;5049164;28;20200;-79
2022/05/20 15:11:12;;;;;;;4.60;2.07;;;;;;;;;;5049086;28;20182;-79
2022/05/20 15:13:39;;;;;;;1.80;1.70;;;;;;;;;;5048788;28;20190;-79
2022/05/20 15:16:08;;;;;;;2.20;1.60;;;;;;;;;;5048700;28;20197;-79
2022/05/20 15:18:35;;;;;;;2.70;1.70;;;;;;;;;;5048712;28;20198;-79
2022/05/20 15:21:04;;;;;;;9.47;1.70;;;;;;;;;;5050948;28;20300;-79
2022/05/20 15:23:35;;;;;;;9.03;2.53;;;;;;;;;;5052383;28;20201;-80
2022/05/20 15:26:02;;;;;;;3.67;1.70;;;;;;;;;;5052408;28;20628;-80
2022/05/20 15:36:46;;;;;;;4.40;3.80;;;;;;;;;;5052203;28;20607;-79
2022/05/20 15:39:17;;;;;;;3.20;3.00;;;;;;;;;;5036829;28;20199;-79
2022/05/20 15:41:44;;;;;;;7.30;5.43;;;;;;;;;;5031891;28;20191;-79
2022/05/20 15:44:11;;;;;;;4.90;4.50;;;;;;;;;;5032121;28;20201;-79
2022/05/20 15:46:40;;;;;;;3.70;2.87;;;;;;;;;;5032193;28;20249;-79
2022/05/20 15:49:07;;;;;;;3.47;2.10;;;;;;;;;;5032246;28;20205;-79
2022/05/20 15:51:34;;;;;;;2.23;1.90;;;;;;;;;;5031550;28;20199;-79